createdAt,value
2022-08-20T00:00:46.389Z,5.47
2022-08-20T00:03:18.930Z,5.57
2022-08-20T00:05:56.719Z,5.30
2022-08-20T00:08:24.272Z,5.57
2022-08-20T00:10:55.642Z,5.30
2022-08-20T00:13:27.407Z,4.93
2022-08-20T00:15:54.564Z,5.18
2022-08-20T00:18:22.934Z,5.43
2022-08-20T00:20:52.612Z,5.25
2022-08-20T00:23:20.491Z,5.40
2022-08-20T00:25:48.454Z,4.75
2022-08-20T00:28:15.499Z,5.30
2022-08-20T00:30:44.543Z,5.00
2022-08-20T00:33:17.793Z,5.15
2022-08-20T00:35:49.229Z,5.07
2022-08-20T00:38:16.139Z,4.82
2022-08-20T00:40:55.025Z,4.78
2022-08-20T00:44:09.183Z,5.60
2022-08-20T00:46:37.788Z,5.32
2022-08-20T00:49:08.250Z,5.40
2022-08-20T00:51:41.023Z,4.80
2022-08-20T00:54:29.356Z,5.30
2022-08-20T00:57:08.535Z,4.28
2022-08-20T00:59:38.279Z,4.15
2022-08-20T01:02:08.768Z,4.70
2022-08-20T01:04:36.643Z,4.25
2022-08-20T01:07:05.956Z,4.55
2022-08-20T01:09:58.081Z,4.55
2022-08-20T01:12:23.661Z,4.72
2022-08-20T01:14:51.016Z,4.45
2022-08-20T01:17:24.298Z,5.15
2022-08-20T01:20:02.042Z,5.25
2022-08-20T01:22:58.835Z,4.32
2022-08-20T01:25:40.942Z,4.82
2022-08-20T01:28:08.651Z,4.57
2022-08-20T01:30:37.007Z,3.97
2022-08-20T01:33:04.944Z,4.35
2022-08-20T01:35:37.381Z,4.40
2022-08-20T01:38:04.568Z,4.25
2022-08-20T01:41:08.991Z,4.80
2022-08-20T01:43:37.040Z,4.75
2022-08-20T01:46:05.064Z,4.72
2022-08-20T01:48:32.703Z,4.20
2022-08-20T01:51:17.580Z,4.63
2022-08-20T01:53:48.001Z,4.47
2022-08-20T01:56:20.153Z,4.88
2022-08-20T01:58:49.804Z,4.93
2022-08-20T02:01:46.756Z,4.90
2022-08-20T02:04:15.380Z,4.80
2022-08-20T02:06:56.531Z,4.57
2022-08-20T02:09:25.993Z,4.72
2022-08-20T02:11:53.358Z,4.60
2022-08-20T02:14:20.784Z,4.72
2022-08-20T02:16:54.768Z,3.95
2022-08-20T02:19:35.456Z,5.43
2022-08-20T02:22:08.957Z,5.03
2022-08-20T02:24:35.745Z,4.47
2022-08-20T02:27:02.935Z,5.00
2022-08-20T02:29:29.857Z,4.88
2022-08-20T02:32:24.352Z,5.13
2022-08-20T02:34:43.687Z,5.03
2022-08-20T02:37:11.839Z,4.70
2022-08-20T02:39:38.684Z,4.57
2022-08-20T02:42:05.666Z,4.40
2022-08-20T02:44:32.503Z,4.95
2022-08-20T02:47:00.248Z,4.50
2022-08-20T02:49:27.455Z,5.03
2022-08-20T02:51:54.450Z,4.70
2022-08-20T02:54:21.207Z,4.95
2022-08-20T02:56:48.096Z,5.07
2022-08-20T02:59:19.696Z,4.97
2022-08-20T03:01:55.796Z,4.75
2022-08-20T03:04:29.211Z,4.70
2022-08-20T03:06:56.712Z,4.63
2022-08-20T03:09:24.118Z,5.38
2022-08-20T03:11:51.316Z,5.57
2022-08-20T03:14:18.119Z,4.85
2022-08-20T03:16:44.887Z,4.82
2022-08-20T03:19:13.375Z,4.82
2022-08-20T03:21:40.233Z,4.60
2022-08-20T03:24:07.254Z,5.20
2022-08-20T03:26:34.333Z,5.28
2022-08-20T03:29:01.590Z,5.15
2022-08-20T03:31:29.355Z,4.88
2022-08-20T03:33:56.170Z,5.00
2022-08-20T03:36:28.602Z,5.43
2022-08-20T03:38:57.985Z,4.82
2022-08-20T03:41:25.175Z,4.90
2022-08-20T03:43:52.046Z,5.35
2022-08-20T03:46:21.998Z,5.88
2022-08-20T03:48:56.445Z,5.05
2022-08-20T03:51:29.039Z,5.00
2022-08-20T03:53:55.980Z,5.60
2022-08-20T03:56:22.784Z,5.13
2022-08-20T03:58:49.649Z,5.50
2022-08-20T04:01:45.374Z,5.18
2022-08-20T04:04:03.580Z,5.22
2022-08-20T04:06:30.528Z,4.90
2022-08-20T04:08:57.983Z,5.13
2022-08-20T04:11:24.878Z,5.40
2022-08-20T04:13:51.864Z,5.53
2022-08-20T04:16:19.482Z,5.90
2022-08-20T04:18:56.051Z,5.38
2022-08-20T04:21:29.665Z,5.65
2022-08-20T04:24:01.155Z,5.65
2022-08-20T04:26:28.142Z,5.55
2022-08-20T04:28:55.626Z,4.43
2022-08-20T04:31:25.339Z,4.38
2022-08-20T04:33:52.702Z,5.35
2022-08-20T04:36:19.658Z,4.90
2022-08-20T04:38:48.123Z,4.57
2022-08-20T04:41:23.011Z,5.30
2022-08-20T04:43:54.628Z,5.40
2022-08-20T04:46:25.495Z,5.60
2022-08-20T04:48:53.007Z,4.82
2022-08-20T04:51:22.938Z,4.80
2022-08-20T04:53:53.892Z,5.18
2022-08-20T04:56:29.792Z,5.03
2022-08-20T04:59:00.033Z,4.65
2022-08-20T05:01:28.050Z,5.93
2022-08-20T05:03:55.903Z,5.82
2022-08-20T05:06:26.631Z,4.70
2022-08-20T05:08:55.886Z,5.43
2022-08-20T05:11:35.013Z,4.72
2022-08-20T05:14:06.160Z,4.97
2022-08-20T05:16:38.478Z,5.75
2022-08-20T05:19:10.305Z,5.00
2022-08-20T05:24:05.430Z,5.47
2022-08-20T05:26:33.385Z,5.45
2022-08-20T05:29:00.222Z,5.30
2022-08-20T05:31:33.305Z,5.43
2022-08-20T05:34:09.536Z,4.80
2022-08-20T05:36:40.192Z,5.35
2022-08-20T05:39:07.299Z,6.25
2022-08-20T05:41:34.147Z,5.80
2022-08-20T05:44:01.562Z,5.47
2022-08-20T05:46:31.227Z,4.93
2022-08-20T05:48:59.478Z,5.32
2022-08-20T05:51:28.202Z,5.60
2022-08-20T05:53:55.318Z,5.40
2022-08-20T05:56:26.704Z,5.53
2022-08-20T05:58:54.125Z,6.30
2022-08-20T06:01:21.676Z,6.53
2022-08-20T06:04:07.087Z,5.80
2022-08-20T06:06:45.047Z,6.38
2022-08-20T06:09:14.348Z,5.68
2022-08-20T06:11:41.132Z,6.03
2022-08-20T06:14:08.069Z,5.60
2022-08-20T06:16:34.852Z,5.85
2022-08-20T06:19:04.988Z,6.43
2022-08-20T06:21:32.342Z,5.18
2022-08-20T06:24:01.343Z,4.95
2022-08-20T06:26:29.919Z,5.45
2022-08-20T06:28:59.253Z,5.47
2022-08-20T06:31:27.557Z,4.72
2022-08-20T06:33:54.567Z,5.05
2022-08-20T06:36:21.671Z,5.30
2022-08-20T06:38:48.748Z,4.72
2022-08-20T06:41:16.532Z,5.40
2022-08-20T06:43:43.485Z,5.05
2022-08-20T06:46:10.941Z,5.13
2022-08-20T06:48:38.462Z,5.57
2022-08-20T06:51:06.833Z,5.15
2022-08-20T06:53:33.749Z,4.72
2022-08-20T06:56:00.632Z,4.47
2022-08-20T06:58:38.127Z,5.03
2022-08-20T07:01:10.773Z,4.97
2022-08-20T07:03:54.893Z,4.78
2022-08-20T07:06:25.622Z,5.32
2022-08-20T07:08:53.417Z,4.57
2022-08-20T07:11:26.668Z,4.22
2022-08-20T07:13:56.713Z,5.10
2022-08-20T07:16:24.004Z,4.55
2022-08-20T07:18:50.818Z,4.47
2022-08-20T07:21:17.691Z,4.50
2022-08-20T07:23:44.622Z,4.03
2022-08-20T07:26:12.888Z,4.35
2022-08-20T07:28:39.916Z,4.57
2022-08-20T07:31:25.592Z,4.78
2022-08-20T07:33:54.235Z,3.92
2022-08-20T07:36:21.467Z,4.68
2022-08-20T07:38:52.399Z,3.72
2022-08-20T07:41:20.963Z,4.05
2022-08-20T07:43:48.136Z,3.33
2022-08-20T07:46:17.701Z,3.63
2022-08-20T07:48:49.963Z,2.83
2022-08-20T07:51:19.161Z,3.38
2022-08-20T07:53:47.497Z,3.45
2022-08-20T07:56:21.625Z,3.33
2022-08-20T07:58:55.342Z,2.88
2022-08-20T08:01:30.339Z,2.97
2022-08-20T08:03:58.423Z,3.17
2022-08-20T08:06:30.427Z,3.13
2022-08-20T08:09:11.697Z,3.35
2022-08-20T08:11:44.929Z,2.85
2022-08-20T08:14:14.493Z,2.78
2022-08-20T08:16:45.656Z,3.28
2022-08-20T08:19:16.900Z,3.30
2022-08-20T08:21:44.387Z,3.42
2022-08-20T08:24:13.571Z,3.60
2022-08-20T08:26:44.104Z,2.78
2022-08-20T08:29:12.169Z,2.85
2022-08-20T08:31:41.024Z,3.63
2022-08-20T08:34:08.289Z,2.63
2022-08-20T08:36:35.080Z,2.90
2022-08-20T08:39:02.087Z,2.60
2022-08-20T08:41:40.711Z,2.97
2022-08-20T08:44:12.677Z,2.80
2022-08-20T08:46:43.292Z,2.45
2022-08-20T08:49:14.275Z,2.88
2022-08-20T08:52:04.980Z,2.50
2022-08-20T08:54:34.245Z,2.33
2022-08-20T08:57:02.142Z,2.42
2022-08-20T08:59:46.213Z,2.20
2022-08-20T09:02:23.562Z,3.13
2022-08-20T09:04:51.667Z,2.75
2022-08-20T09:07:18.568Z,3.03
2022-08-20T09:09:46.901Z,2.78
2022-08-20T09:12:22.947Z,2.30
2022-08-20T09:14:51.634Z,2.53
2022-08-20T09:17:20.420Z,2.30
2022-08-20T09:19:47.920Z,2.42
2022-08-20T09:22:18.040Z,2.60
2022-08-20T09:24:45.370Z,1.92
2022-08-20T09:27:12.403Z,2.60
2022-08-20T09:29:40.212Z,2.70
2022-08-20T09:32:14.784Z,2.42
2022-08-20T09:34:44.592Z,2.80
2022-08-20T09:37:11.853Z,2.28
2022-08-20T09:39:38.904Z,2.53
2022-08-20T09:42:17.299Z,2.50
2022-08-20T09:44:45.035Z,2.40
2022-08-20T09:47:12.351Z,2.25
2022-08-20T09:49:39.727Z,2.17
2022-08-20T09:52:09.144Z,2.05
2022-08-20T09:54:37.481Z,2.08
2022-08-20T09:57:07.340Z,2.22
2022-08-20T09:59:35.844Z,1.67
2022-08-20T10:02:03.030Z,1.92
2022-08-20T10:04:29.940Z,1.83
2022-08-20T10:06:56.822Z,1.48
2022-08-20T10:09:24.224Z,1.45
2022-08-20T10:11:51.028Z,1.23
2022-08-20T10:14:17.815Z,1.20
2022-08-20T10:16:44.755Z,0.80
2022-08-20T10:19:11.601Z,0.75
2022-08-20T10:21:39.269Z,0.85
2022-08-20T10:24:06.624Z,0.70
2022-08-20T10:26:33.432Z,1.00
2022-08-20T10:29:00.223Z,1.67
2022-08-20T10:31:27.022Z,0.90
2022-08-20T10:33:53.858Z,0.80
2022-08-20T10:36:20.649Z,0.70
2022-08-20T10:38:49.031Z,0.70
2022-08-20T10:41:15.972Z,0.80
2022-08-20T10:43:42.747Z,1.00
2022-08-20T10:46:09.795Z,0.95
2022-08-20T10:48:36.622Z,0.80
2022-08-20T10:51:03.700Z,0.50
2022-08-20T10:53:31.146Z,0.52
2022-08-20T10:55:58.052Z,0.80
2022-08-20T10:58:25.612Z,0.88
2022-08-20T11:00:52.997Z,1.00
2022-08-20T11:03:20.357Z,1.17
2022-08-20T11:05:47.779Z,0.93
2022-08-20T11:08:14.627Z,0.90
2022-08-20T11:11:00.288Z,0.88
2022-08-20T11:13:27.248Z,0.90
2022-08-20T11:15:54.139Z,0.90
2022-08-20T11:18:20.980Z,1.00
2022-08-20T11:20:47.814Z,0.90
2022-08-20T11:23:14.627Z,1.10
2022-08-20T11:25:41.396Z,1.25
2022-08-20T11:28:08.441Z,1.00
2022-08-20T11:30:37.482Z,1.50
2022-08-20T11:33:05.476Z,1.10
2022-08-20T11:35:49.052Z,1.40
2022-08-20T11:38:18.138Z,1.40
2022-08-20T11:40:46.907Z,1.80
2022-08-20T11:43:16.407Z,2.20
2022-08-20T11:45:50.073Z,2.22
2022-08-20T11:48:17.986Z,2.25
2022-08-20T11:50:45.695Z,2.00
2022-08-20T11:53:12.654Z,2.42
2022-08-20T11:55:40.335Z,2.00
2022-08-20T11:58:07.876Z,2.10
2022-08-20T12:00:36.858Z,1.85
2022-08-20T12:03:09.046Z,1.90
2022-08-20T12:05:42.799Z,1.90
2022-08-20T12:08:10.749Z,1.83
2022-08-20T12:10:55.071Z,2.10
2022-08-20T12:13:21.860Z,2.13
2022-08-20T12:15:57.596Z,1.80
2022-08-20T12:18:27.058Z,1.70
2022-08-20T12:20:54.585Z,1.70
2022-08-20T12:23:21.373Z,1.80
2022-08-20T12:25:48.223Z,2.00
2022-08-20T12:28:15.371Z,1.70
2022-08-20T12:30:42.385Z,2.45
2022-08-20T12:33:09.164Z,2.15
2022-08-20T12:35:36.316Z,1.75
2022-08-20T12:38:05.269Z,2.30
2022-08-20T12:40:33.842Z,1.77
2022-08-20T12:43:02.006Z,1.85
2022-08-20T12:45:29.848Z,2.10
2022-08-20T12:48:08.696Z,2.00
2022-08-20T12:50:36.439Z,1.67
2022-08-20T12:53:03.875Z,1.52
2022-08-20T12:55:31.435Z,2.08
2022-08-20T12:58:01.233Z,1.60
2022-08-20T13:00:43.229Z,1.45
2022-08-20T13:03:11.974Z,1.55
2022-08-20T13:05:39.426Z,1.70
2022-08-20T13:08:08.882Z,1.52
2022-08-20T13:11:02.924Z,1.60
2022-08-20T13:17:11.031Z,1.77
2022-08-20T13:19:39.794Z,1.38
2022-08-20T13:22:06.868Z,1.40
2022-08-20T13:24:34.104Z,1.33
2022-08-20T13:27:11.263Z,1.40
2022-08-20T13:29:38.335Z,1.40
2022-08-20T13:32:05.999Z,1.17
2022-08-20T13:34:32.800Z,1.13
2022-08-20T13:36:59.699Z,1.50
2022-08-20T13:39:26.528Z,1.40
2022-08-20T13:41:53.371Z,1.70
2022-08-20T13:44:20.238Z,1.30
2022-08-20T13:46:58.659Z,1.40
2022-08-20T13:49:25.455Z,1.20
2022-08-20T13:51:55.608Z,1.10
2022-08-20T13:54:22.394Z,0.98
2022-08-20T13:56:50.825Z,0.90
2022-08-20T13:59:17.650Z,0.80
2022-08-20T14:01:44.533Z,0.90
2022-08-20T14:04:11.361Z,0.70
2022-08-20T14:06:38.170Z,0.52
2022-08-20T14:09:05.018Z,0.55
2022-08-20T14:11:31.793Z,0.85
2022-08-20T14:13:58.587Z,0.50
2022-08-20T14:16:33.364Z,0.40
2022-08-20T14:19:02.499Z,0.60
2022-08-20T14:21:29.270Z,0.52
2022-08-20T14:23:58.323Z,0.50
2022-08-20T14:26:25.279Z,0.55
2022-08-20T14:28:52.103Z,0.55
2022-08-20T14:31:18.888Z,0.70
2022-08-20T14:33:45.653Z,0.68
2022-08-20T14:36:12.432Z,0.60
2022-08-20T14:38:44.990Z,0.40
2022-08-20T14:41:12.075Z,0.50
2022-08-20T14:43:38.871Z,0.60
2022-08-20T14:46:06.218Z,0.60
2022-08-20T14:48:33.040Z,0.50
2022-08-20T14:51:00.810Z,0.60
2022-08-20T14:53:27.666Z,0.40
2022-08-20T14:55:54.492Z,0.75
2022-08-20T14:58:21.290Z,0.50
2022-08-20T15:00:48.200Z,0.70
2022-08-20T15:03:15.053Z,0.60
2022-08-20T15:05:42.053Z,0.65
2022-08-20T15:08:11.088Z,0.65
2022-08-20T15:10:39.216Z,0.50
2022-08-20T15:13:06.171Z,0.50
2022-08-20T15:15:33.022Z,0.70
2022-08-20T15:18:00.596Z,0.57
2022-08-20T15:20:29.768Z,0.65
2022-08-20T15:22:56.907Z,0.50
2022-08-20T15:25:27.310Z,0.60
2022-08-20T15:28:04.570Z,0.50
2022-08-20T15:30:31.840Z,0.57
2022-08-20T15:32:59.135Z,0.65
2022-08-20T15:35:28.457Z,0.70
2022-08-20T15:37:57.100Z,0.70
2022-08-20T15:40:28.499Z,0.70
2022-08-20T15:42:57.629Z,0.63
2022-08-20T15:45:25.104Z,0.70
2022-08-20T15:47:59.696Z,0.68
2022-08-20T15:51:00.493Z,0.60
2022-08-20T15:53:36.372Z,0.60
2022-08-20T15:56:20.603Z,0.70
2022-08-20T15:58:59.463Z,0.70
2022-08-20T16:01:45.474Z,0.98
2022-08-20T16:04:24.378Z,0.80
2022-08-20T16:06:56.319Z,0.90
2022-08-20T16:09:55.843Z,1.00
2022-08-20T16:12:39.170Z,0.90
2022-08-20T16:15:17.385Z,0.90
2022-08-20T16:17:52.890Z,0.60
2022-08-20T16:20:35.284Z,1.00
2022-08-20T16:23:03.864Z,0.80
2022-08-20T16:25:43.609Z,1.10
2022-08-20T16:28:26.503Z,0.68
2022-08-20T16:31:04.290Z,0.70
2022-08-20T16:34:04.781Z,1.00
2022-08-20T16:37:15.790Z,0.80
2022-08-20T16:40:05.018Z,0.70
2022-08-20T16:42:38.792Z,0.68
2022-08-20T16:45:10.042Z,0.80
2022-08-20T16:47:38.512Z,0.90
2022-08-20T16:50:16.147Z,0.80
2022-08-20T16:52:45.255Z,0.85
2022-08-20T16:55:12.994Z,0.70
2022-08-20T16:57:39.963Z,0.90
2022-08-20T17:00:18.941Z,0.85
2022-08-20T17:03:07.659Z,0.80
2022-08-20T17:05:48.812Z,0.80
2022-08-20T17:08:31.879Z,0.80
2022-08-20T17:11:01.254Z,0.70
2022-08-20T17:13:31.764Z,0.90
2022-08-20T17:16:21.590Z,0.98
2022-08-20T17:18:53.864Z,0.88
2022-08-20T17:21:28.268Z,0.98
2022-08-20T17:24:06.383Z,1.02
2022-08-20T17:26:36.882Z,1.00
2022-08-20T17:29:21.190Z,0.82
2022-08-20T17:31:54.225Z,1.10
2022-08-20T17:34:25.127Z,1.08
2022-08-20T17:36:54.500Z,1.15
2022-08-20T17:39:22.523Z,0.80
2022-08-20T17:41:52.590Z,0.90
2022-08-20T17:44:31.103Z,1.10
2022-08-20T17:46:59.921Z,1.17
2022-08-20T17:49:43.233Z,1.05
2022-08-20T17:52:39.191Z,1.20
2022-08-20T17:55:08.444Z,1.00
2022-08-20T17:57:38.698Z,0.95
2022-08-20T18:00:15.833Z,1.10
2022-08-20T18:02:44.023Z,1.00
2022-08-20T18:05:20.425Z,1.10
2022-08-20T18:08:14.924Z,1.13
2022-08-20T18:11:10.632Z,1.20
2022-08-20T18:14:04.808Z,1.23
2022-08-20T18:16:43.171Z,1.40
2022-08-20T18:19:37.607Z,1.25
2022-08-20T18:22:13.253Z,1.25
2022-08-20T18:24:57.711Z,1.20
2022-08-20T18:27:28.145Z,1.30
2022-08-20T18:29:58.998Z,0.98
2022-08-20T18:32:38.978Z,1.30
2022-08-20T18:35:31.677Z,1.33
2022-08-20T18:38:24.089Z,1.15
2022-08-20T18:40:55.084Z,1.23
2022-08-20T18:43:31.554Z,0.90
2022-08-20T18:46:21.727Z,1.10
2022-08-20T18:48:55.291Z,1.20
2022-08-20T18:51:28.851Z,1.05
2022-08-20T18:53:55.888Z,1.17
2022-08-20T18:56:41.499Z,1.08
2022-08-20T18:59:22.538Z,0.98
2022-08-20T19:01:49.661Z,0.90
2022-08-20T19:04:37.271Z,1.20
2022-08-20T19:07:56.596Z,1.00
2022-08-20T19:11:06.972Z,1.30
2022-08-20T19:20:56.225Z,1.00
2022-08-20T19:23:26.055Z,1.00
2022-08-20T19:25:59.812Z,1.00
2022-08-20T19:28:59.485Z,1.02
2022-08-20T19:35:17.692Z,0.90
2022-08-20T19:37:51.657Z,0.90
2022-08-20T19:41:38.795Z,0.80
2022-08-20T19:48:15.963Z,1.20
2022-08-20T19:59:49.877Z,0.70
2022-08-20T20:18:59.069Z,0.80
2022-08-20T20:25:48.650Z,0.85
2022-08-20T20:28:22.023Z,0.85
2022-08-20T20:31:09.911Z,0.70
2022-08-20T20:37:49.696Z,0.43
2022-08-20T20:44:36.956Z,0.73
2022-08-20T20:55:37.377Z,0.82
2022-08-20T21:01:55.834Z,0.60
2022-08-20T21:08:14.526Z,0.77
2022-08-20T21:11:06.719Z,0.70
2022-08-20T21:13:33.540Z,0.77
2022-08-20T21:16:00.343Z,0.70
2022-08-20T21:18:27.284Z,0.63
2022-08-20T21:20:54.062Z,0.77
2022-08-20T21:23:20.920Z,0.70
2022-08-20T21:26:27.993Z,0.75
2022-08-20T21:32:42.987Z,0.70
2022-08-20T21:38:56.848Z,0.70
2022-08-20T21:45:28.360Z,0.80
2022-08-20T21:56:04.260Z,0.60
2022-08-20T22:02:29.368Z,0.77
2022-08-20T22:09:00.215Z,0.70
2022-08-20T22:15:13.712Z,0.85
2022-08-20T22:28:02.203Z,0.52
2022-08-20T22:30:29.584Z,0.52
2022-08-20T22:33:20.880Z,0.50
2022-08-20T22:36:35.542Z,0.55
2022-08-20T22:42:48.828Z,0.60
2022-08-20T22:45:15.780Z,0.73
2022-08-20T22:47:49.528Z,0.40
2022-08-20T22:50:42.635Z,0.50
2022-08-20T22:53:42.547Z,0.52
2022-08-20T22:56:09.315Z,0.60
2022-08-20T22:58:50.087Z,0.60
2022-08-20T23:01:21.235Z,0.52
2022-08-20T23:03:48.127Z,0.60
2022-08-20T23:06:27.874Z,0.52
2022-08-20T23:08:54.784Z,0.40
2022-08-20T23:12:05.428Z,0.52
2022-08-20T23:14:32.220Z,0.60
2022-08-20T23:17:41.662Z,0.55
2022-08-20T23:23:50.470Z,0.70
2022-08-20T23:30:27.540Z,0.60
2022-08-20T23:32:54.719Z,0.50
2022-08-20T23:36:20.616Z,0.50
2022-08-20T23:38:53.128Z,0.73
2022-08-20T23:41:19.990Z,0.65
2022-08-20T23:43:46.818Z,0.65
2022-08-20T23:50:54.167Z,0.47
2022-08-20T23:57:08.399Z,0.80
2022-08-20T23:59:35.834Z,0.68
